Thunder radar more information blitzortung!


Radar de pluja more information rain snow radar


Visita la nostra xarxa de llocs de meteo:

Template documentation
and downloads

And another site



No particular awareness of the weather is required.    There are no Weather-warnings

Pagina Historial Weather Underground text

Diari Resum May 4, 2017 Unitats:  Imperial    Mètric   Tant
« Previous Dia
SegĂźent Dia »
Diari Setmana Mensual Anual Personalitzada
  Maxima: Minima: Media:
Temperatura: 73 °F 51.4 °F 63.1 °F
Punt de rosada: 56.8 °F 48.6 °F 52.3 °F
Humitat: 93 % 51 % 69 %
Wind Speed: 11.5 mph 0 mph 3.8 mph
RĂ fegues de vent: 11.5 mph - -
Vent:- - South
Pression baro: 30.1 in 29.9 in -
Precipitacions: 0 in    
Historical Graphs
 
 
Dades de taula per May 4, 2017
Temps Temperatura Punt de rosada Pression baro Vent Wind Speed RĂ fegues de vent Humitat Rainfall Rate (Hourly)
00:00 51.8 °F 48.9 °F 30 in Calm     90 % 0 in
00:02 54 °F 49.8 °F 30.1 in NE 2.3 mph 2.3 mph 86 % 0 in
00:07 54 °F 49.8 °F 30.1 in NNE 1.2 mph   86 % 0 in
00:10 51.8 °F 48.9 °F 30 in Calm     90 % 0 in
00:25 51.8 °F 49.3 °F 30 in Calm     91 % 0 in
00:35 51.8 °F 49.3 °F 30 in Calm     91 % 0 in
00:45 51.6 °F 49.1 °F 30 in Calm     91 % 0 in
00:55 51.4 °F 48.6 °F 30 in SW 1 mph 2 mph 90 % 0 in
01:05 51.4 °F 48.9 °F 30 in SW 1 mph 1 mph 91 % 0 in
01:15 51.4 °F 48.9 °F 30 in Calm     91 % 0 in
01:25 51.4 °F 48.9 °F 30 in Calm     91 % 0 in
01:35 51.4 °F 48.9 °F 30 in Calm     91 % 0 in
01:45 51.4 °F 49.3 °F 30 in Calm     92 % 0 in
01:55 51.4 °F 48.9 °F 30 in Calm     91 % 0 in
02:05 51.4 °F 48.9 °F 30 in WSW 1 mph 1 mph 91 % 0 in
02:15 51.4 °F 49.3 °F 30 in Calm   1 mph 92 % 0 in
02:25 51.4 °F 49.3 °F 30 in WSW 1 mph 2 mph 92 % 0 in
02:35 51.4 °F 49.3 °F 30 in Calm   1 mph 92 % 0 in
02:45 51.6 °F 49.5 °F 30 in WSW 1 mph 2 mph 92 % 0 in
02:55 51.8 °F 49.5 °F 30 in WSW 2 mph 2 mph 92 % 0 in
03:05 51.6 °F 49.1 °F 30 in WSW 1 mph 2 mph 91 % 0 in
03:15 51.6 °F 49.1 °F 30 in WSW 2 mph 3 mph 91 % 0 in
03:25 51.6 °F 49.1 °F 30 in SW 1 mph 2 mph 91 % 0 in
03:35 52 °F 49.5 °F 30 in WSW 1 mph 2 mph 91 % 0 in
03:45 52.2 °F 49.8 °F 30 in WSW 1 mph 2 mph 92 % 0 in
03:55 52.5 °F 50.5 °F 30 in SW 1 mph 1 mph 93 % 0 in
04:05 52.7 °F 50.7 °F 30 in SSE 1 mph 2 mph 93 % 0 in
04:15 53.8 °F 51.8 °F 30 in SE 1 mph 1 mph 93 % 0 in
04:25 54.5 °F 52.5 °F 30 in SW 1 mph 2 mph 93 % 0 in
04:35 54.7 °F 52.3 °F 30 in SW 1 mph 2 mph 92 % 0 in
04:45 55.2 °F 52.5 °F 30 in SW 2 mph 3 mph 91 % 0 in
04:55 55.2 °F 52.3 °F 30 in SW 1 mph 2 mph 90 % 0 in
05:05 55.8 °F 52.5 °F 29.9 in WSW 2 mph 2 mph 89 % 0 in
05:15 57.4 °F 54.1 °F 29.9 in SW 1 mph 3 mph 89 % 0 in
05:25 58.3 °F 54.7 °F 30 in SW 1 mph 2 mph 88 % 0 in
05:35 59.4 °F 54.9 °F 30 in WSW 1 mph 4 mph 85 % 0 in
05:45 61 °F 55.8 °F 30 in SSW 1 mph 4 mph 83 % 0 in
05:55 62.1 °F 56.5 °F 29.9 in SSW 1 mph 3 mph 82 % 0 in
11:00 63 °F 56.7 °F 29.9 in WSW 3.5 mph 3.5 mph 80 % 0 in
11:05 62.2 °F 55.9 °F 29.9 in SSE 5.8 mph 5.8 mph 80 % 0 in
11:10 62.8 °F 55.8 °F 29.9 in SW 6.9 mph 6.9 mph 78 % 0 in
11:15 63.3 °F 56.3 °F 29.9 in SW 3.5 mph 3.5 mph 78 % 0 in
11:20 64 °F 56.7 °F 29.9 in SSW 5.8 mph 5.8 mph 77 % 0 in
11:21 64.2 °F 56.8 °F 29.9 in South 5.8 mph 5.8 mph 77 % 0 in
11:27 63.9 °F 55.9 °F 29.9 in SW 4.6 mph 4.6 mph 76 % 0 in
11:32 64.6 °F 56.5 °F 29.9 in South 4 mph 4 mph 75 % 0 in
11:37 64.4 °F 56.3 °F 29.9 in WSW 4.6 mph 4.6 mph 75 % 0 in
11:42 64.4 °F 55.9 °F 29.9 in SW 4.9 mph 4.9 mph 74 % 0 in
11:47 64.9 °F 56.5 °F 29.9 in SSE 6.9 mph 6.9 mph 74 % 0 in
11:52 65.5 °F 56.7 °F 29.9 in WSW 5.8 mph 5.8 mph 73 % 0 in
11:57 65.1 °F 55.9 °F 29.9 in WSW 3.3 mph 3.3 mph 72 % 0 in
11:58 65.1 °F 56.1 °F 29.9 in WNW 3.5 mph 3.5 mph 73 % 0 in
12:03 65.7 °F 56.5 °F 29.9 in SW 2.3 mph 2.3 mph 72 % 0 in
12:08 66 °F 56.7 °F 29.9 in SSE 3.5 mph 3.5 mph 72 % 0 in
12:13 66.6 °F 56.5 °F 29.9 in WSW 2.3 mph 2.3 mph 70 % 0 in
12:18 66.6 °F 56.8 °F 29.9 in WSW 4 mph 4 mph 71 % 0 in
12:23 66.4 °F 55.6 °F 29.9 in SW 5.8 mph 5.8 mph 68 % 0 in
12:28 66.9 °F 55.9 °F 29.9 in SE 3.5 mph 3.5 mph 68 % 0 in
12:33 67.1 °F 55.4 °F 29.9 in SSE 3.5 mph 3.5 mph 66 % 0 in
12:38 68.4 °F 55.8 °F 29.9 in WSW 4.6 mph 4.6 mph 64 % 0 in
12:43 68.7 °F 54.7 °F 29.9 in WSW 4.6 mph 4.6 mph 61 % 0 in
12:48 69.1 °F 55.9 °F 29.9 in WSW 5.8 mph 5.8 mph 63 % 0 in
12:53 69.6 °F 55 °F 29.9 in SSE 1.4 mph 1.4 mph 60 % 0 in
12:58 69.6 °F 55 °F 29.9 in SSE 5.8 mph 5.8 mph 60 % 0 in
13:03 69.8 °F 54.9 °F 29.9 in WSW 6.9 mph 6.9 mph 59 % 0 in
13:08 69.4 °F 53.1 °F 29.9 in South 5.8 mph 5.8 mph 56 % 0 in
13:13 70.9 °F 55.4 °F 29.9 in SW 4.3 mph 4.3 mph 58 % 0 in
13:18 69.8 °F 52.9 °F 29.9 in WSW 10.4 mph 10.4 mph 55 % 0 in
13:23 70.2 °F 53.2 °F 29.9 in SW 11.5 mph 11.5 mph 55 % 0 in
13:28 70.9 °F 54.3 °F 29.9 in SW 8.5 mph 8.5 mph 56 % 0 in
13:33 71.6 °F 54.7 °F 29.9 in NW 4.7 mph 4.7 mph 55 % 0 in
13:38 70.5 °F 53.6 °F 29.9 in SW 8.5 mph 8.5 mph 55 % 0 in
13:43 71.1 °F 53.6 °F 29.9 in WSW 8.1 mph 8.1 mph 54 % 0 in
13:48 72.1 °F 54.7 °F 29.9 in WSW 5.8 mph 5.8 mph 54 % 0 in
13:53 71.1 °F 53.1 °F 29.9 in SSW 8.1 mph 8.1 mph 53 % 0 in
13:58 71.1 °F 53.1 °F 29.9 in SSW 6.9 mph 6.9 mph 53 % 0 in
14:03 71.8 °F 53.8 °F 29.9 in SSE 5.8 mph 5.8 mph 53 % 0 in
14:08 72.1 °F 54.1 °F 29.9 in South 3.5 mph 3.5 mph 53 % 0 in
14:13 72 °F 53.4 °F 29.9 in SSW 6.9 mph 6.9 mph 52 % 0 in
14:18 72 °F 54 °F 29.9 in WSW 5.8 mph 5.8 mph 53 % 0 in
14:23 71.8 °F 53.8 °F 29.9 in SSE 5.8 mph 5.8 mph 53 % 0 in
14:28 71.8 °F 53.8 °F 29.9 in SSE 8.1 mph 8.1 mph 53 % 0 in
14:33 72.3 °F 53.8 °F 29.9 in East 3.6 mph 3.6 mph 52 % 0 in
14:38 72.1 °F 54.1 °F 29.9 in SSW 9.2 mph 9.2 mph 53 % 0 in
14:43 71.6 °F 53.6 °F 29.9 in South 5.8 mph 5.8 mph 53 % 0 in
14:48 72.3 °F 53.8 °F 29.9 in South 5.8 mph 5.8 mph 52 % 0 in
14:53 72.1 °F 53.4 °F 29.9 in SW 6.9 mph 6.9 mph 52 % 0 in
14:58 72.3 °F 53.8 °F 29.9 in WNW 5.8 mph 5.8 mph 52 % 0 in
15:03 72.9 °F 54.1 °F 29.9 in South 4.6 mph 4.6 mph 52 % 0 in
15:04 72.9 °F 54.1 °F 29.9 in South 4.7 mph 4.7 mph 52 % 0 in
15:09 72.5 °F 54 °F 29.9 in SW 9.7 mph 9.7 mph 52 % 0 in
15:14 73 °F 54.3 °F 29.9 in SW 4 mph 4 mph 52 % 0 in
15:19 72.9 °F 54.1 °F 29.9 in SSW 9.2 mph 9.2 mph 52 % 0 in
15:24 72.1 °F 53.1 °F 29.9 in West 4.6 mph 4.6 mph 51 % 0 in
15:29 71.8 °F 52.7 °F 29.9 in SSW 9.2 mph 9.2 mph 51 % 0 in
15:34 72.5 °F 54 °F 29.9 in SW 4.6 mph 4.6 mph 52 % 0 in
15:39 72 °F 52.9 °F 29.9 in SW 5.8 mph 5.8 mph 51 % 0 in
15:44 72 °F 52.9 °F 29.9 in South 5.8 mph 5.8 mph 51 % 0 in
15:49 72.3 °F 53.2 °F 29.9 in WSW 10.2 mph 10.2 mph 51 % 0 in
15:54 70.2 °F 51.3 °F 29.9 in South 8.1 mph 8.1 mph 51 % 0 in
15:59 71.1 °F 52 °F 29.9 in SW 8.1 mph 8.1 mph 51 % 0 in
16:04 71.6 °F 53.1 °F 29.9 in WSW 8.5 mph 8.5 mph 52 % 0 in
16:09 72 °F 53.4 °F 29.9 in SSE 6.2 mph 6.2 mph 52 % 0 in
16:14 71.6 °F 53.1 °F 29.9 in SW 6.9 mph 6.9 mph 52 % 0 in
16:19 72.3 °F 53.8 °F 29.9 in WSW 4.6 mph 4.6 mph 52 % 0 in
16:24 72.1 °F 53.4 °F 29.9 in WSW 4.6 mph 4.6 mph 52 % 0 in
16:29 71.6 °F 53.1 °F 29.9 in WSW 8.5 mph 8.5 mph 52 % 0 in
16:34 71.2 °F 52.7 °F 29.9 in SSW 9.2 mph 9.2 mph 52 % 0 in
16:39 71.6 °F 53.1 °F 29.9 in SW 7.8 mph 7.8 mph 52 % 0 in
16:44 71.4 °F 52.9 °F 29.9 in SSW 5.8 mph 5.8 mph 52 % 0 in
16:49 70.7 °F 51.6 °F 29.9 in SSE 6.9 mph 6.9 mph 51 % 0 in
16:54 71.2 °F 52.7 °F 29.9 in SW 8.1 mph 8.1 mph 52 % 0 in
16:59 70.7 °F 52.2 °F 29.9 in West 8.1 mph 8.1 mph 52 % 0 in
17:04 71.1 °F 52.5 °F 29.9 in NW 3.1 mph 3.1 mph 52 % 0 in
17:09 71.4 °F 52.9 °F 29.9 in WSW 3.5 mph 3.5 mph 52 % 0 in
17:14 70.9 °F 52.3 °F 29.9 in SSE 5.8 mph 5.8 mph 52 % 0 in
17:19 71.6 °F 53.6 °F 29.9 in WSW 5.8 mph 5.8 mph 53 % 0 in
17:24 71.6 °F 53.1 °F 29.9 in SSE 4.6 mph 4.6 mph 52 % 0 in
17:29 70.5 °F 52 °F 29.9 in SW 4.6 mph 4.6 mph 52 % 0 in
17:34 71.1 °F 53.1 °F 29.9 in SW 3.1 mph 3.1 mph 53 % 0 in
17:39 70.7 °F 52.2 °F 29.9 in SSW 5.8 mph 5.8 mph 52 % 0 in
17:44 70.9 °F 52.3 °F 29.9 in SSW 5.8 mph 5.8 mph 52 % 0 in
17:49 70.2 °F 51.6 °F 29.9 in SSW 3.6 mph 3.6 mph 52 % 0 in
17:54 69.4 °F 52.2 °F 29.9 in SSE 4.6 mph 4.6 mph 54 % 0 in
17:59 69.4 °F 52.2 °F 29.9 in WSW 4.6 mph 4.6 mph 54 % 0 in
18:04 68.7 °F 51.4 °F 29.9 in SSW 4.6 mph 4.6 mph 54 % 0 in
18:09 68.5 °F 51.3 °F 29.9 in SW 5.8 mph 5.8 mph 54 % 0 in
18:14 68.4 °F 51.6 °F 29.9 in WSW 5.8 mph 5.8 mph 55 % 0 in
18:19 68.4 °F 51.6 °F 29.9 in SSW 2.3 mph 2.3 mph 55 % 0 in
18:24 68.7 °F 52 °F 29.9 in South 2.3 mph 2.3 mph 55 % 0 in
18:29 68.2 °F 51.4 °F 29.9 in SW 2.3 mph 2.3 mph 55 % 0 in
18:34 67.3 °F 51.1 °F 29.9 in ESE 5.8 mph 5.8 mph 56 % 0 in
18:39 67.1 °F 51.4 °F 29.9 in WSW 3.8 mph 3.8 mph 57 % 0 in
18:44 66.9 °F 51.6 °F 29.9 in SSW 3.6 mph 3.6 mph 58 % 0 in
18:49 66.4 °F 51.3 °F 29.9 in SW 5.8 mph 5.8 mph 58 % 0 in
18:54 66 °F 51.3 °F 29.9 in WSW 3.5 mph 3.5 mph 59 % 0 in
18:59 65.5 °F 51.3 °F 29.9 in SW 6.2 mph 6.2 mph 60 % 0 in
19:04 65.3 °F 51.4 °F 29.9 in West 5.8 mph 5.8 mph 61 % 0 in
19:09 65.1 °F 51.8 °F 29.9 in WSW 5.8 mph 5.8 mph 62 % 0 in
19:14 64.9 °F 51.6 °F 29.9 in SSW 4.6 mph 4.6 mph 62 % 0 in
19:19 64.6 °F 51.6 °F 29.9 in South 7.6 mph 7.6 mph 63 % 0 in
19:24 64.6 °F 51.6 °F 29.9 in SW 3.5 mph 3.5 mph 63 % 0 in
19:25 57.9 °F 51.8 °F 30 in NE 2 mph 4 mph 80 % 0 in
19:29 64.2 °F 51.4 °F 29.9 in SW 5.8 mph 5.8 mph 63 % 0 in
19:34 64 °F 51.3 °F 29.9 in WSW 4.6 mph 4.6 mph 63 % 0 in
19:35 57.9 °F 51.8 °F 30 in NE 3 mph 4 mph 80 % 0 in
19:39 63.9 °F 51.4 °F 29.9 in ESE 4.6 mph 4.6 mph 64 % 0 in
19:44 63.5 °F 51.1 °F 29.9 in West 5.8 mph 5.8 mph 64 % 0 in
19:45 57.9 °F 51.8 °F 30 in NE 2 mph 3 mph 80 % 0 in
19:49 63.5 °F 51.1 °F 29.9 in WSW 2.6 mph 2.6 mph 64 % 0 in
19:54 63.1 °F 50.7 °F 29.9 in SW 5.8 mph 5.8 mph 64 % 0 in
19:55 57.9 °F 51.8 °F 30 in NE 1 mph 2 mph 80 % 0 in
19:59 63 °F 50.5 °F 29.9 in WSW 3.5 mph 3.5 mph 64 % 0 in
20:04 62.8 °F 50.7 °F 29.9 in SSW 5.8 mph 5.8 mph 65 % 0 in
20:05 57.7 °F 51.6 °F 30 in Calm   2 mph 80 % 0 in
20:09 62.6 °F 50.7 °F 29.9 in WSW 3.5 mph 3.5 mph 65 % 0 in
20:14 62.6 °F 50.7 °F 29.9 in SW 3.5 mph 3.5 mph 65 % 0 in
20:15 57.7 °F 52 °F 30 in ENE 1 mph 2 mph 81 % 0 in
20:19 62.2 °F 50.4 °F 29.9 in WSW 3.5 mph 3.5 mph 65 % 0 in
20:20 62.2 °F 50.4 °F 29.9 in SW 3.5 mph 3.5 mph 65 % 0 in
20:25 62.2 °F 50.4 °F 29.9 in SSW 2 mph 2 mph 65 % 0 in
20:30 62.1 °F 50.2 °F 29.9 in SSW 2.3 mph 2.3 mph 65 % 0 in
20:35 62.1 °F 50.2 °F 29.9 in SW 2.3 mph 2.3 mph 65 % 0 in
20:40 61.9 °F 50 °F 29.9 in WSW 2.4 mph 2.4 mph 65 % 0 in
20:45 61.7 °F 49.8 °F 29.9 in WSW 1.2 mph 1.2 mph 65 % 0 in
20:50 61.7 °F 49.8 °F 29.9 in WSW 1.2 mph   65 % 0 in
20:55 61.5 °F 49.6 °F 29.9 in ENE 2.4 mph 2.4 mph 65 % 0 in
21:00 61.3 °F 49.5 °F 29.9 in NE 2.6 mph 2.6 mph 65 % 0 in
21:05 61.2 °F 50.9 °F 29.9 in NE 3.6 mph 3.6 mph 69 % 0 in
21:10 61 °F 51.4 °F 29.9 in East 3.5 mph 3.5 mph 71 % 0 in
21:15 60.8 °F 51.3 °F 29.9 in ESE 4.6 mph 4.6 mph 71 % 0 in
21:20 60.8 °F 52.2 °F 29.9 in ENE 4.6 mph 4.6 mph 73 % 0 in
21:25 60.6 °F 52 °F 29.9 in NE 4.6 mph 4.6 mph 73 % 0 in
21:30 60.6 °F 52.3 °F 29.9 in ESE 3.5 mph 3.5 mph 74 % 0 in
21:35 57.2 °F 51.1 °F 29.9 in NE 1 mph 4 mph 80 % 0 in
21:40 60.3 °F 52 °F 29.9 in ESE 5.8 mph 5.8 mph 74 % 0 in
21:45 60.1 °F 51.8 °F 29.9 in ENE 3.1 mph 3.1 mph 74 % 0 in
21:50 60.1 °F 52.2 °F 29.9 in East 2.3 mph 2.3 mph 75 % 0 in
21:55 59.9 °F 52 °F 29.9 in ESE 2.9 mph 2.9 mph 75 % 0 in
22:00 59.7 °F 51.8 °F 30 in South 1.2 mph   75 % 0 in
22:05 59.7 °F 51.8 °F 30 in SSE 1.2 mph 1.2 mph 75 % 0 in
22:10 59.5 °F 51.6 °F 30 in ENE 2.6 mph 2.6 mph 75 % 0 in
22:11 59.5 °F 51.6 °F 30 in ESE 3.5 mph 3.5 mph 75 % 0 in
22:15 56.3 °F 50.5 °F 30 in Calm     81 % 0 in
22:16 59.5 °F 52 °F 30 in East 2.4 mph 2.4 mph 76 % 0 in
22:21 59.5 °F 52 °F 30 in East 2.3 mph 2.4 mph 76 % 0 in
22:25 56.1 °F 50.4 °F 30 in NW 1 mph 2 mph 81 % 0 in
22:26 59.4 °F 51.8 °F 30 in ESE 3.1 mph 3.1 mph 76 % 0 in
22:31 59.4 °F 52.2 °F 30 in NE 3.5 mph 3.5 mph 77 % 0 in
22:35 55.9 °F 50.2 °F 30 in NNE 2 mph 3 mph 81 % 0 in
22:36 59.4 °F 51.8 °F 30 in East 3.5 mph 3.5 mph 76 % 0 in
22:41 59.2 °F 52 °F 30 in NNE 4.6 mph 4.6 mph 77 % 0 in
22:45 55.6 °F 49.8 °F 30 in NNE 3 mph 3 mph 81 % 0 in
22:46 59.2 °F 52 °F 30 in ESE 3.5 mph 3.5 mph 77 % 0 in
22:51 59.2 °F 52.3 °F 30 in East 3.5 mph 3.5 mph 78 % 0 in
22:55 55.2 °F 49.5 °F 29.9 in Calm   2 mph 81 % 0 in
22:56 59.2 °F 52.3 °F 30 in NNE 2.4 mph 2.4 mph 78 % 0 in
23:01 59 °F 52.2 °F 30 in ESE 3.5 mph 3.5 mph 78 % 0 in
23:05 54.9 °F 49.5 °F 29.9 in Calm   2 mph 82 % 0 in
23:06 59 °F 52.2 °F 30 in ENE 3.3 mph 3.3 mph 78 % 0 in
23:11 59 °F 52.2 °F 30 in ENE 2.3 mph 2.3 mph 78 % 0 in
23:15 54.7 °F 49.3 °F 29.9 in Calm     82 % 0 in
23:16 58.8 °F 52 °F 30 in NE 4.6 mph 4.6 mph 78 % 0 in
23:21 58.8 °F 52.3 °F 30 in NNE 3.5 mph 3.5 mph 79 % 0 in
23:25 54.7 °F 49.3 °F 29.9 in Calm     82 % 0 in
23:26 58.6 °F 52.2 °F 30 in NE 2.3 mph 2.4 mph 79 % 0 in
23:31 58.5 °F 52 °F 30 in ESE 2.2 mph   79 % 0 in
23:35 54.7 °F 49.6 °F 29.9 in Calm     83 % 0 in
23:36 58.5 °F 52 °F 30 in NE 2.3 mph 2.3 mph 79 % 0 in
23:41 58.3 °F 51.8 °F 30 in ENE 2.3 mph 2.3 mph 79 % 0 in
23:45 54.5 °F 49.5 °F 29.9 in Calm     83 % 0 in
23:46 58.3 °F 52.2 °F 30 in East 1.6 mph 1.6 mph 80 % 0 in
23:51 58.1 °F 52 °F 30 in ENE 2.3 mph 2.3 mph 80 % 0 in
23:55 54.7 °F 49.6 °F 29.9 in Calm   2 mph 83 % 0 in
23:56 58.1 °F 52 °F 30 in NE 2.3 mph 2.3 mph 80 % 0 in
Meteo Sesrovires
Elogis d' Weather Underground - 3.75 mb

Guio original per  Jim McMurry - jmcmurry@mwt.net Adaptat per a la plantilla per  Wim van der Kuil - Leuven-Template.eu

Trobareu la nostra informacio del temps tambe a:

Weather Underground

AWEKAS